createdAt,value
2018-09-30T00:00:26.090Z,60.09
2018-09-30T00:02:54.398Z,60.53
2018-09-30T00:05:22.629Z,60.48
2018-09-30T00:07:51.099Z,59.82
2018-09-30T00:10:19.316Z,60.70
2018-09-30T00:12:47.575Z,60.44
2018-09-30T00:15:15.724Z,60.35
2018-09-30T00:17:43.880Z,60.59
2018-09-30T00:20:12.067Z,61.15
2018-09-30T00:22:40.236Z,59.80
2018-09-30T00:25:13.823Z,60.04
2018-09-30T00:27:42.004Z,59.53
2018-09-30T00:30:10.223Z,59.35
2018-09-30T00:32:39.263Z,59.35
2018-09-30T00:35:07.461Z,59.60
2018-09-30T00:37:35.640Z,60.70
2018-09-30T00:40:03.834Z,61.13
2018-09-30T00:42:32.008Z,60.58
2018-09-30T00:45:00.292Z,60.79
2018-09-30T00:47:28.603Z,60.60
2018-09-30T00:49:56.847Z,61.06
2018-09-30T00:52:25.003Z,60.21
2018-09-30T00:54:53.183Z,60.94
2018-09-30T00:57:21.447Z,60.82
2018-09-30T00:59:49.679Z,61.41
2018-09-30T01:02:17.919Z,61.02
2018-09-30T01:04:46.103Z,61.00
2018-09-30T01:07:14.308Z,61.42
2018-09-30T01:09:42.558Z,61.58
2018-09-30T01:12:10.743Z,61.12
2018-09-30T01:14:38.922Z,61.89
2018-09-30T01:17:07.083Z,61.31
2018-09-30T01:19:35.283Z,61.27
2018-09-30T01:22:03.514Z,62.09
2018-09-30T01:24:31.727Z,61.23
2018-09-30T01:26:59.939Z,61.82
2018-09-30T01:29:28.212Z,62.07
2018-09-30T01:31:56.363Z,62.01
2018-09-30T01:34:24.762Z,62.34
2018-09-30T01:36:52.951Z,62.34
2018-09-30T01:39:21.140Z,63.07
2018-09-30T01:41:49.318Z,62.68
2018-09-30T01:44:17.500Z,62.31
2018-09-30T01:46:45.706Z,61.92
2018-09-30T01:49:13.885Z,62.05
2018-09-30T01:51:42.104Z,62.49
2018-09-30T01:54:10.276Z,62.45
2018-09-30T01:56:38.540Z,62.28
2018-09-30T01:59:06.779Z,62.55
2018-09-30T02:01:34.976Z,63.14
2018-09-30T02:04:03.174Z,62.53
2018-09-30T02:06:31.383Z,63.02
2018-09-30T02:08:59.592Z,62.56
2018-09-30T02:11:27.828Z,62.61
2018-09-30T02:13:56.078Z,62.96
2018-09-30T02:16:24.651Z,62.23
2018-09-30T02:18:52.837Z,61.98
2018-09-30T02:21:20.999Z,63.31
2018-09-30T02:23:49.190Z,63.02
2018-09-30T02:26:17.359Z,63.25
2018-09-30T02:28:45.536Z,63.20
2018-09-30T02:31:13.882Z,63.02
2018-09-30T02:33:42.074Z,62.86
2018-09-30T02:36:10.278Z,62.95
2018-09-30T02:38:38.493Z,63.01
2018-09-30T02:41:06.687Z,62.48
2018-09-30T02:43:34.905Z,62.75
2018-09-30T02:46:03.110Z,61.91
2018-09-30T02:48:31.403Z,62.94
2018-09-30T02:50:59.868Z,63.12
2018-09-30T02:53:32.219Z,62.61
2018-09-30T02:56:00.379Z,63.12
2018-09-30T02:58:28.572Z,62.53
2018-09-30T03:00:56.758Z,62.52
2018-09-30T03:03:24.925Z,62.77
2018-09-30T03:05:53.087Z,63.06
2018-09-30T03:08:26.523Z,63.19
2018-09-30T03:10:54.751Z,62.42
2018-09-30T03:13:23.058Z,62.82
2018-09-30T03:15:51.247Z,62.46
2018-09-30T03:18:19.475Z,62.68
2018-09-30T03:20:47.651Z,62.15
2018-09-30T03:23:15.813Z,62.49
2018-09-30T03:25:43.978Z,63.12
2018-09-30T03:28:12.256Z,62.74
2018-09-30T03:30:40.459Z,62.74
2018-09-30T03:33:08.615Z,63.53
2018-09-30T03:35:36.775Z,63.39
2018-09-30T03:38:04.994Z,63.16
2018-09-30T03:40:33.202Z,63.46
2018-09-30T03:43:01.375Z,62.87
2018-09-30T03:45:29.566Z,62.97
2018-09-30T03:47:57.783Z,62.86
2018-09-30T03:50:25.940Z,62.76
2018-09-30T03:52:54.136Z,63.14
2018-09-30T03:55:22.334Z,63.22
2018-09-30T03:57:50.545Z,63.67
2018-09-30T04:00:19.168Z,62.88
2018-09-30T04:02:47.346Z,63.64
2018-09-30T04:05:15.603Z,63.75
2018-09-30T04:07:43.775Z,62.99
2018-09-30T04:10:12.046Z,63.49
2018-09-30T04:12:40.123Z,63.11
2018-09-30T04:15:08.363Z,63.60
2018-09-30T04:17:36.524Z,63.13
2018-09-30T04:20:04.723Z,62.98
2018-09-30T04:22:32.887Z,63.54
2018-09-30T04:25:01.067Z,62.66
2018-09-30T04:27:29.263Z,63.11
2018-09-30T04:29:57.452Z,62.48
2018-09-30T04:32:25.635Z,62.45
2018-09-30T04:34:53.806Z,61.79
2018-09-30T04:37:21.982Z,62.61
2018-09-30T04:39:50.217Z,62.43
2018-09-30T04:42:19.021Z,62.13
2018-09-30T04:44:47.299Z,62.65
2018-09-30T04:47:15.471Z,62.67
2018-09-30T04:49:43.665Z,62.60
2018-09-30T04:52:11.835Z,62.76
2018-09-30T04:54:40.647Z,63.53
2018-09-30T04:57:08.847Z,63.11
2018-09-30T04:59:37.051Z,63.16
2018-09-30T05:02:05.243Z,63.52
2018-09-30T05:04:34.032Z,63.17
2018-09-30T05:07:02.265Z,63.76
2018-09-30T05:09:30.519Z,63.82
2018-09-30T05:11:58.700Z,63.50
2018-09-30T05:14:26.846Z,63.14
2018-09-30T05:16:55.218Z,62.93
2018-09-30T05:19:23.410Z,63.06
2018-09-30T05:21:51.629Z,63.54
2018-09-30T05:24:19.782Z,63.32
2018-09-30T05:26:47.972Z,62.99
2018-09-30T05:29:16.130Z,63.13
2018-09-30T05:31:44.364Z,62.58
2018-09-30T05:34:12.604Z,63.11
2018-09-30T05:36:40.796Z,62.95
2018-09-30T05:39:10.018Z,62.46
2018-09-30T05:41:38.815Z,63.30
2018-09-30T05:44:07.674Z,62.99
2018-09-30T05:46:35.859Z,62.64
2018-09-30T05:49:04.200Z,63.47
2018-09-30T05:51:32.547Z,63.76
2018-09-30T05:54:00.715Z,64.28
2018-09-30T05:56:28.994Z,64.14
2018-09-30T05:58:57.189Z,63.84
2018-09-30T06:01:25.478Z,64.65
2018-09-30T06:03:53.862Z,64.01
2018-09-30T06:06:22.157Z,63.49
2018-09-30T06:08:50.382Z,63.84
2018-09-30T06:11:18.588Z,63.66
2018-09-30T06:13:47.161Z,63.89
2018-09-30T06:16:15.240Z,63.14
2018-09-30T06:18:43.438Z,64.05
2018-09-30T06:21:11.619Z,63.91
2018-09-30T06:23:39.836Z,64.20
2018-09-30T06:26:07.978Z,64.09
2018-09-30T06:28:36.208Z,64.42
2018-09-30T06:31:04.396Z,63.67
2018-09-30T06:33:33.443Z,63.85
2018-09-30T06:36:01.640Z,64.41
2018-09-30T06:38:29.839Z,65.08
2018-09-30T06:40:58.065Z,65.04
2018-09-30T06:43:26.308Z,65.04
2018-09-30T06:45:54.493Z,65.77
2018-09-30T06:48:22.779Z,65.64
2018-09-30T06:50:51.307Z,66.05
2018-09-30T06:53:19.505Z,65.20
2018-09-30T06:55:47.743Z,65.59
2018-09-30T06:58:15.962Z,65.50
2018-09-30T07:00:44.186Z,65.68
2018-09-30T07:03:13.102Z,66.56
2018-09-30T07:05:41.311Z,66.24
2018-09-30T07:08:09.506Z,66.34
2018-09-30T07:10:37.785Z,66.91
2018-09-30T07:13:06.170Z,65.84
2018-09-30T07:15:34.470Z,66.50
2018-09-30T07:18:02.656Z,66.81
2018-09-30T07:20:30.860Z,66.34
2018-09-30T07:22:59.043Z,67.03
2018-09-30T07:25:27.191Z,66.95
2018-09-30T07:27:55.399Z,66.09
2018-09-30T07:30:23.611Z,65.51
2018-09-30T07:32:51.820Z,65.86
2018-09-30T07:35:20.009Z,65.26
2018-09-30T07:37:48.636Z,63.55
2018-09-30T07:40:17.319Z,63.19
2018-09-30T07:42:45.502Z,62.63
2018-09-30T07:45:14.287Z,63.35
2018-09-30T07:47:43.159Z,63.88
2018-09-30T07:50:11.342Z,62.99
2018-09-30T07:52:39.586Z,61.79
2018-09-30T07:55:07.725Z,61.78
2018-09-30T07:57:35.895Z,60.88
2018-09-30T08:00:05.401Z,61.39
2018-09-30T08:02:33.576Z,60.63
2018-09-30T08:05:01.755Z,60.99
2018-09-30T08:07:30.627Z,61.43
2018-09-30T08:09:59.471Z,61.51
2018-09-30T08:12:28.317Z,61.06
2018-09-30T08:14:56.551Z,61.85
2018-09-30T08:17:24.759Z,61.79
2018-09-30T08:19:52.944Z,62.20
2018-09-30T08:22:21.130Z,62.32
2018-09-30T08:24:49.355Z,62.20
2018-09-30T08:27:17.549Z,62.03
2018-09-30T08:29:46.392Z,61.26
2018-09-30T08:32:14.586Z,61.13
2018-09-30T08:34:42.786Z,61.25
2018-09-30T08:37:11.091Z,60.90
2018-09-30T08:39:39.980Z,60.93
2018-09-30T08:42:08.111Z,60.92
2018-09-30T08:44:36.314Z,61.15
2018-09-30T08:47:04.743Z,60.05
2018-09-30T08:49:32.954Z,59.46
2018-09-30T08:52:01.545Z,60.16
2018-09-30T08:54:29.795Z,59.32
2018-09-30T08:56:58.009Z,59.62
2018-09-30T08:59:26.175Z,59.49
2018-09-30T09:01:54.337Z,58.70
2018-09-30T09:04:22.652Z,59.08
2018-09-30T09:06:51.205Z,57.98
2018-09-30T09:09:19.422Z,57.90
2018-09-30T09:11:47.610Z,57.78
2018-09-30T09:14:15.791Z,57.51
2018-09-30T09:16:44.548Z,58.16
2018-09-30T09:19:12.828Z,58.28
2018-09-30T09:21:41.511Z,58.50
2018-09-30T09:24:09.735Z,59.09
2018-09-30T09:26:37.920Z,58.77
2018-09-30T09:29:06.174Z,58.14
2018-09-30T09:31:34.420Z,57.40
2018-09-30T09:34:02.674Z,57.74
2018-09-30T09:36:33.806Z,58.13
2018-09-30T09:39:02.872Z,56.30
2018-09-30T09:41:31.476Z,56.54
2018-09-30T09:43:59.661Z,56.97
2018-09-30T09:46:27.919Z,56.16
2018-09-30T09:48:56.078Z,56.51
2018-09-30T09:51:24.354Z,56.49
2018-09-30T09:53:52.889Z,56.71
2018-09-30T09:56:21.353Z,56.81
2018-09-30T09:58:49.615Z,55.95
2018-09-30T10:01:17.804Z,53.68
2018-09-30T10:03:46.538Z,53.80
2018-09-30T10:06:14.795Z,54.03
2018-09-30T10:08:43.002Z,53.80
2018-09-30T10:11:11.216Z,52.39
2018-09-30T10:13:39.399Z,54.06
2018-09-30T10:16:07.636Z,52.37
2018-09-30T10:18:42.159Z,53.05
2018-09-30T10:21:10.357Z,53.41
2018-09-30T10:23:39.577Z,52.76
2018-09-30T10:26:07.747Z,52.44
2018-09-30T10:28:35.947Z,50.15
2018-09-30T10:31:04.911Z,51.94
2018-09-30T10:33:33.144Z,49.99
2018-09-30T10:36:01.338Z,50.99
2018-09-30T10:38:29.546Z,51.08
2018-09-30T10:40:57.717Z,50.37
2018-09-30T10:43:25.907Z,49.70
2018-09-30T10:45:54.105Z,50.24
2018-09-30T10:48:22.389Z,49.66
2018-09-30T10:50:50.549Z,50.00
2018-09-30T10:53:19.301Z,50.25
2018-09-30T10:55:47.465Z,50.20
2018-09-30T10:58:16.228Z,50.50
2018-09-30T11:00:44.494Z,48.98
2018-09-30T11:03:12.723Z,48.48
2018-09-30T11:05:40.932Z,48.95
2018-09-30T11:08:09.103Z,48.91
2018-09-30T11:10:37.309Z,48.13
2018-09-30T11:13:05.628Z,48.50
2018-09-30T11:15:33.834Z,47.81
2018-09-30T11:18:02.009Z,47.58
2018-09-30T11:20:30.242Z,47.83
2018-09-30T11:22:58.463Z,47.63
2018-09-30T11:25:26.745Z,47.38
2018-09-30T11:27:55.220Z,46.61
2018-09-30T11:30:30.151Z,45.63
2018-09-30T11:32:58.363Z,43.96
2018-09-30T11:35:26.600Z,43.56
2018-09-30T11:37:54.876Z,43.96
2018-09-30T11:40:23.111Z,42.42
2018-09-30T11:42:51.312Z,40.57
2018-09-30T11:45:19.499Z,41.53
2018-09-30T11:47:47.766Z,40.40
2018-09-30T11:50:16.093Z,40.15
2018-09-30T11:52:44.397Z,39.57
2018-09-30T11:55:12.611Z,39.71
2018-09-30T11:57:40.821Z,40.61
2018-09-30T12:00:09.147Z,39.67
2018-09-30T12:02:37.366Z,40.04
2018-09-30T12:05:05.646Z,39.58
2018-09-30T12:07:33.846Z,40.49
2018-09-30T12:10:02.305Z,40.68
2018-09-30T12:12:30.545Z,40.48
2018-09-30T12:14:59.475Z,40.86
2018-09-30T12:17:27.696Z,41.32
2018-09-30T12:19:55.929Z,39.69
2018-09-30T12:22:24.134Z,39.84
2018-09-30T12:24:52.367Z,39.07
2018-09-30T12:27:20.619Z,40.23
2018-09-30T12:29:48.836Z,40.12
2018-09-30T12:32:17.001Z,40.22
2018-09-30T12:34:45.355Z,39.94
2018-09-30T12:37:13.618Z,38.90
2018-09-30T12:39:41.841Z,38.58
2018-09-30T12:42:10.022Z,38.63
2018-09-30T12:44:38.219Z,39.00
2018-09-30T12:47:06.424Z,38.18
2018-09-30T12:49:34.802Z,39.36
2018-09-30T12:52:02.984Z,39.03
2018-09-30T12:54:31.219Z,37.61
2018-09-30T12:56:59.431Z,37.18
2018-09-30T12:59:27.635Z,37.42
2018-09-30T13:01:55.914Z,36.55
2018-09-30T13:04:24.163Z,36.13
2018-09-30T13:06:52.378Z,36.08
2018-09-30T13:09:20.588Z,35.59
2018-09-30T13:11:48.847Z,35.84
2018-09-30T13:14:17.100Z,36.79
2018-09-30T13:16:45.307Z,37.17
2018-09-30T13:19:13.498Z,37.49
2018-09-30T13:21:41.730Z,39.68
2018-09-30T13:24:09.997Z,40.50
2018-09-30T13:26:38.230Z,39.38
2018-09-30T13:29:06.562Z,39.86
2018-09-30T13:31:34.826Z,41.19
2018-09-30T13:34:03.031Z,41.46
2018-09-30T13:36:31.255Z,41.53
2018-09-30T13:38:59.455Z,42.49
2018-09-30T13:41:27.667Z,41.83
2018-09-30T13:43:55.859Z,41.54
2018-09-30T13:46:24.036Z,42.77
2018-09-30T13:48:52.288Z,42.11
2018-09-30T13:51:20.661Z,40.67
2018-09-30T13:53:48.808Z,41.05
2018-09-30T13:56:17.039Z,41.34
2018-09-30T13:58:45.227Z,42.25
2018-09-30T14:01:13.649Z,43.29
2018-09-30T14:03:41.876Z,43.00
2018-09-30T14:06:10.155Z,42.59
2018-09-30T14:08:38.338Z,43.57
2018-09-30T14:11:06.563Z,42.46
2018-09-30T14:13:34.785Z,42.49
2018-09-30T14:16:03.019Z,42.97
2018-09-30T14:18:31.215Z,43.33
2018-09-30T14:20:59.403Z,42.50
2018-09-30T14:23:27.570Z,40.52
2018-09-30T14:25:55.750Z,41.66
2018-09-30T14:28:24.016Z,41.01
2018-09-30T14:30:52.249Z,41.51
2018-09-30T14:33:20.423Z,41.33
2018-09-30T14:35:48.653Z,40.66
2018-09-30T14:38:16.887Z,39.75
2018-09-30T14:40:45.188Z,40.44
2018-09-30T14:43:16.365Z,41.50
2018-09-30T14:45:44.595Z,41.50
2018-09-30T14:48:12.885Z,41.77
2018-09-30T14:50:41.039Z,42.93
2018-09-30T14:53:09.241Z,41.74
2018-09-30T14:55:37.460Z,42.64
2018-09-30T14:58:05.701Z,41.76
2018-09-30T15:00:33.883Z,42.65
2018-09-30T15:03:02.142Z,43.91
2018-09-30T15:05:30.331Z,41.81
2018-09-30T15:07:58.559Z,42.85
2018-09-30T15:10:26.776Z,43.78
2018-09-30T15:12:55.037Z,43.60
2018-09-30T15:15:23.497Z,42.35
2018-09-30T15:17:51.715Z,41.89
2018-09-30T15:20:19.954Z,42.07
2018-09-30T15:22:48.239Z,42.56
2018-09-30T15:25:16.454Z,43.24
2018-09-30T15:27:44.715Z,43.73
2018-09-30T15:30:12.990Z,43.12
2018-09-30T15:32:41.380Z,41.67
2018-09-30T15:35:09.571Z,40.89
2018-09-30T15:37:37.758Z,42.04
2018-09-30T15:40:06.403Z,41.99
2018-09-30T15:42:34.584Z,41.58
2018-09-30T15:45:02.937Z,41.33
2018-09-30T15:47:31.210Z,41.85
2018-09-30T15:49:59.420Z,42.17
2018-09-30T15:52:27.703Z,42.35
2018-09-30T15:54:56.073Z,41.52
2018-09-30T15:57:24.428Z,43.03
2018-09-30T15:59:52.699Z,42.08
2018-09-30T16:02:21.298Z,42.45
2018-09-30T16:04:49.512Z,41.78
2018-09-30T16:07:17.676Z,42.60
2018-09-30T16:09:45.865Z,41.81
2018-09-30T16:12:14.035Z,43.22
2018-09-30T16:14:42.995Z,42.73
2018-09-30T16:17:11.196Z,42.94
2018-09-30T16:19:39.378Z,43.15
2018-09-30T16:22:07.584Z,43.90
2018-09-30T16:24:35.963Z,43.94
2018-09-30T16:27:04.135Z,43.71
2018-09-30T16:29:32.347Z,42.84
2018-09-30T16:32:00.591Z,43.08
2018-09-30T16:34:28.818Z,43.24
2018-09-30T16:36:57.020Z,43.71
2018-09-30T16:39:25.259Z,44.25
2018-09-30T16:41:53.455Z,45.01
2018-09-30T16:44:21.913Z,44.46
2018-09-30T16:46:50.217Z,44.80
2018-09-30T16:49:18.415Z,44.86
2018-09-30T16:51:46.635Z,46.15
2018-09-30T16:54:14.832Z,47.52
2018-09-30T16:56:43.032Z,48.65
2018-09-30T16:59:11.231Z,48.98
2018-09-30T17:01:39.429Z,50.01
2018-09-30T17:04:07.644Z,50.29
2018-09-30T17:06:35.913Z,50.66
2018-09-30T17:09:05.294Z,50.83
2018-09-30T17:11:33.485Z,51.03
2018-09-30T17:14:01.666Z,52.06
2018-09-30T17:16:29.934Z,50.72
2018-09-30T17:18:58.192Z,50.84
2018-09-30T17:21:26.403Z,50.77
2018-09-30T17:23:54.598Z,50.98
2018-09-30T17:26:22.838Z,51.35
2018-09-30T17:28:51.063Z,51.68
2018-09-30T17:31:19.369Z,51.97
2018-09-30T17:33:47.532Z,51.18
2018-09-30T17:36:15.731Z,51.02
2018-09-30T17:38:43.911Z,51.55
2018-09-30T17:41:12.116Z,51.75
2018-09-30T17:43:40.267Z,52.02
2018-09-30T17:46:08.923Z,51.83
2018-09-30T17:48:37.080Z,51.44
2018-09-30T17:51:05.287Z,52.63
2018-09-30T17:53:33.514Z,51.94
2018-09-30T17:56:01.889Z,52.53
2018-09-30T17:58:30.110Z,52.91
2018-09-30T18:00:58.295Z,52.58
2018-09-30T18:03:26.485Z,53.25
2018-09-30T18:05:54.742Z,52.72
2018-09-30T18:08:22.966Z,53.10
2018-09-30T18:10:51.219Z,52.83
2018-09-30T18:13:19.343Z,52.18
2018-09-30T18:15:47.543Z,52.09
2018-09-30T18:18:15.726Z,52.42
2018-09-30T18:20:43.969Z,52.12
2018-09-30T18:23:12.150Z,51.92
2018-09-30T18:25:40.343Z,52.31
2018-09-30T18:28:09.018Z,51.74
2018-09-30T18:30:37.298Z,51.97
2018-09-30T18:33:05.496Z,52.83
2018-09-30T18:35:33.655Z,52.01
2018-09-30T18:38:01.956Z,53.39
2018-09-30T18:40:42.079Z,52.90
2018-09-30T18:43:10.765Z,53.20
2018-09-30T18:45:38.970Z,54.04
2018-09-30T18:48:07.718Z,54.46
2018-09-30T18:50:36.011Z,54.30
2018-09-30T18:53:04.308Z,54.52
2018-09-30T18:55:32.519Z,54.87
2018-09-30T18:58:01.155Z,55.71
2018-09-30T19:00:29.523Z,56.07
2018-09-30T19:02:57.691Z,55.54
2018-09-30T19:05:25.881Z,55.95
2018-09-30T19:07:54.107Z,56.09
2018-09-30T19:10:22.361Z,57.12
2018-09-30T19:12:50.522Z,56.52
2018-09-30T19:15:18.759Z,56.77
2018-09-30T19:17:47.139Z,57.78
2018-09-30T19:20:15.393Z,57.02
2018-09-30T19:22:43.649Z,57.63
2018-09-30T19:25:11.987Z,57.08
2018-09-30T19:27:40.123Z,57.39
2018-09-30T19:30:08.395Z,57.95
2018-09-30T19:32:36.521Z,57.66
2018-09-30T19:35:04.731Z,58.06
2018-09-30T19:37:32.915Z,58.16
2018-09-30T19:40:01.096Z,58.35
2018-09-30T19:42:29.314Z,58.74
2018-09-30T19:44:57.531Z,59.47
2018-09-30T19:47:25.747Z,58.76
2018-09-30T19:49:53.925Z,59.41
2018-09-30T19:52:22.784Z,59.28
2018-09-30T19:54:50.960Z,59.43
2018-09-30T19:57:19.151Z,59.90
2018-09-30T19:59:47.420Z,59.83
2018-09-30T20:02:15.574Z,59.83
2018-09-30T20:04:43.755Z,60.76
2018-09-30T20:07:11.928Z,60.37
2018-09-30T20:09:40.265Z,60.35
2018-09-30T20:12:08.643Z,60.82
2018-09-30T20:14:36.835Z,60.91
2018-09-30T20:17:05.880Z,61.13
2018-09-30T20:19:34.376Z,60.01
2018-09-30T20:22:02.806Z,60.59
2018-09-30T20:24:31.214Z,60.25
2018-09-30T20:26:59.614Z,60.69
2018-09-30T20:29:27.990Z,59.96
2018-09-30T20:31:56.290Z,60.70
2018-09-30T20:34:24.572Z,60.08
2018-09-30T20:36:52.944Z,60.46
2018-09-30T20:39:21.225Z,60.61
2018-09-30T20:41:49.521Z,60.64
2018-09-30T20:44:17.767Z,62.05
2018-09-30T20:46:46.602Z,61.13
2018-09-30T20:49:14.834Z,61.14
2018-09-30T20:51:43.089Z,62.08
2018-09-30T20:54:11.986Z,62.00
2018-09-30T20:56:40.304Z,62.22
2018-09-30T20:59:08.562Z,61.73
2018-09-30T21:01:36.837Z,61.82
2018-09-30T21:04:05.141Z,62.44
2018-09-30T21:06:37.583Z,61.79
2018-09-30T21:09:09.138Z,61.57
2018-09-30T21:11:37.409Z,61.70
2018-09-30T21:14:05.858Z,63.02
2018-09-30T21:16:34.200Z,62.64
2018-09-30T21:19:02.559Z,62.24
2018-09-30T21:21:30.893Z,62.42
2018-09-30T21:23:59.215Z,61.98
2018-09-30T21:26:27.567Z,62.41
2018-09-30T21:28:55.836Z,62.13
2018-09-30T21:31:24.172Z,62.24
2018-09-30T21:33:52.517Z,62.28
2018-09-30T21:36:20.794Z,61.89
2018-09-30T21:38:49.074Z,62.72
2018-09-30T21:41:17.394Z,62.54
2018-09-30T21:43:45.642Z,62.50
2018-09-30T21:46:13.885Z,63.44
2018-09-30T21:48:42.217Z,63.31
2018-09-30T21:51:10.470Z,63.19
2018-09-30T21:53:38.832Z,63.72
2018-09-30T21:56:07.212Z,62.92
2018-09-30T21:58:35.474Z,62.66
2018-09-30T22:01:04.867Z,63.39
2018-09-30T22:03:33.152Z,62.58
2018-09-30T22:06:01.667Z,63.16
2018-09-30T22:08:29.958Z,63.49
2018-09-30T22:10:58.252Z,63.11
2018-09-30T22:13:26.558Z,63.06
2018-09-30T22:15:54.868Z,62.60
2018-09-30T22:18:23.157Z,62.84
2018-09-30T22:20:51.470Z,62.86
2018-09-30T22:23:19.773Z,63.43
2018-09-30T22:25:48.080Z,63.83
2018-09-30T22:28:16.370Z,63.90
2018-09-30T22:30:44.639Z,64.62
2018-09-30T22:33:12.925Z,64.55
2018-09-30T22:35:41.239Z,65.06
2018-09-30T22:38:09.590Z,66.43
2018-09-30T22:40:37.910Z,66.65
2018-09-30T22:43:06.256Z,65.68
2018-09-30T22:45:34.586Z,66.04
2018-09-30T22:48:02.885Z,66.84
2018-09-30T22:50:31.174Z,66.47
2018-09-30T22:52:59.525Z,66.46
2018-09-30T22:55:27.846Z,65.92
2018-09-30T22:57:56.160Z,65.81
2018-09-30T23:00:24.459Z,66.01
2018-09-30T23:02:52.733Z,65.89
2018-09-30T23:05:21.021Z,66.36
2018-09-30T23:07:49.309Z,66.49
2018-09-30T23:10:17.565Z,65.80
2018-09-30T23:12:45.854Z,65.39
2018-09-30T23:15:14.229Z,66.33
2018-09-30T23:17:42.519Z,66.24
2018-09-30T23:20:15.094Z,65.59
2018-09-30T23:22:43.444Z,66.18
2018-09-30T23:25:11.801Z,66.12
2018-09-30T23:27:40.166Z,66.10
2018-09-30T23:30:08.507Z,65.56
2018-09-30T23:32:37.076Z,65.47
2018-09-30T23:35:05.406Z,65.68
2018-09-30T23:37:33.763Z,65.73
2018-09-30T23:40:02.139Z,66.07
2018-09-30T23:42:30.481Z,65.92
2018-09-30T23:44:58.964Z,65.72
2018-09-30T23:47:27.337Z,65.80
2018-09-30T23:49:55.622Z,66.14
2018-09-30T23:52:23.897Z,66.16
2018-09-30T23:54:52.485Z,66.98
2018-09-30T23:57:20.825Z,66.01
2018-09-30T23:59:49.507Z,66.36
